createdAt,value
2018-11-04T00:00:41.050Z,15.40
2018-11-04T00:01:46.681Z,15.00
2018-11-04T00:02:52.117Z,12.70
2018-11-04T00:03:57.649Z,14.10
2018-11-04T00:05:03.176Z,13.80
2018-11-04T00:06:08.713Z,14.70
2018-11-04T00:07:14.237Z,14.70
2018-11-04T00:08:19.776Z,12.10
2018-11-04T00:09:25.300Z,11.90
2018-11-04T00:10:30.829Z,16.00
2018-11-04T00:11:36.362Z,12.60
2018-11-04T00:12:41.890Z,11.30
2018-11-04T00:13:47.422Z,16.10
2018-11-04T00:14:52.997Z,11.40
2018-11-04T00:15:58.483Z,13.70
2018-11-04T00:17:04.017Z,11.50
2018-11-04T00:18:09.549Z,11.70
2018-11-04T00:19:15.076Z,10.90
2018-11-04T00:20:20.678Z,11.40
2018-11-04T00:21:26.139Z,12.10
2018-11-04T00:22:31.667Z,10.80
2018-11-04T00:23:37.199Z,13.20
2018-11-04T00:24:42.730Z,10.80
2018-11-04T00:25:48.267Z,16.70
2018-11-04T00:26:53.821Z,10.40
2018-11-04T00:27:59.320Z,18.80
2018-11-04T00:29:04.852Z,12.60
2018-11-04T00:30:10.401Z,11.90
2018-11-04T00:31:15.913Z,11.20
2018-11-04T00:32:21.451Z,11.60
2018-11-04T00:33:26.975Z,11.90
2018-11-04T00:34:32.552Z,13.10
2018-11-04T00:35:38.050Z,13.70
2018-11-04T00:36:43.567Z,11.60
2018-11-04T00:37:49.104Z,15.80
2018-11-04T00:38:54.634Z,10.30
2018-11-04T00:40:00.166Z,19.70
2018-11-04T00:41:05.691Z,12.10
2018-11-04T00:42:11.228Z,13.10
2018-11-04T00:43:16.752Z,15.70
2018-11-04T00:44:22.281Z,14.60
2018-11-04T00:45:27.897Z,12.10
2018-11-04T00:46:33.349Z,13.20
2018-11-04T00:47:38.877Z,12.70
2018-11-04T00:48:44.414Z,11.70
2018-11-04T00:49:49.941Z,15.40
2018-11-04T00:50:55.478Z,12.50
2018-11-04T00:52:01.004Z,10.40
2018-11-04T00:53:06.535Z,12.20
2018-11-04T00:54:12.068Z,12.50
2018-11-04T00:55:17.596Z,11.30
2018-11-04T00:56:23.133Z,11.80
2018-11-04T00:57:28.656Z,14.60
2018-11-04T00:58:34.186Z,11.10
2018-11-04T00:59:39.720Z,12.90
2018-11-04T01:00:45.250Z,13.20
2018-11-04T01:01:50.781Z,12.70
2018-11-04T01:02:56.311Z,12.40
2018-11-04T01:04:01.843Z,12.30
2018-11-04T01:05:07.379Z,13.40
2018-11-04T01:06:12.906Z,12.60
2018-11-04T01:07:18.435Z,10.00
2018-11-04T01:08:23.971Z,13.30
2018-11-04T01:09:29.503Z,12.00
2018-11-04T01:10:35.036Z,11.00
2018-11-04T01:11:40.566Z,8.10
2018-11-04T01:12:46.103Z,12.00
2018-11-04T01:13:51.624Z,10.80
2018-11-04T01:14:57.158Z,9.90
2018-11-04T01:16:02.684Z,15.50
2018-11-04T01:17:08.219Z,12.30
2018-11-04T01:18:13.749Z,12.20
2018-11-04T01:19:19.281Z,14.80
2018-11-04T01:20:24.811Z,17.30
2018-11-04T01:21:30.340Z,11.60
2018-11-04T01:22:35.871Z,12.20
2018-11-04T01:23:41.401Z,11.80
2018-11-04T01:24:46.938Z,13.90
2018-11-04T01:25:52.465Z,11.00
2018-11-04T01:26:58.000Z,13.10
2018-11-04T01:28:03.529Z,13.50
2018-11-04T01:29:09.119Z,12.80
2018-11-04T01:30:14.637Z,13.60
2018-11-04T01:31:20.123Z,11.50
2018-11-04T01:32:25.651Z,10.70
2018-11-04T01:33:31.186Z,13.40
2018-11-04T01:34:36.715Z,12.60
2018-11-04T01:35:42.252Z,13.00
2018-11-04T01:36:47.782Z,13.90
2018-11-04T01:37:53.308Z,9.50
2018-11-04T01:38:58.842Z,13.80
2018-11-04T01:40:04.376Z,12.10
2018-11-04T01:41:09.907Z,9.20
2018-11-04T01:42:15.433Z,13.80
2018-11-04T01:43:20.966Z,11.30
2018-11-04T01:44:26.496Z,14.60
2018-11-04T01:45:32.026Z,17.00
2018-11-04T01:46:37.560Z,16.60
2018-11-04T01:47:43.096Z,11.80
2018-11-04T01:48:48.628Z,14.10
2018-11-04T01:49:54.155Z,10.90
2018-11-04T01:50:59.683Z,10.10
2018-11-04T01:52:05.217Z,10.80
2018-11-04T01:53:10.751Z,11.40
2018-11-04T01:54:16.280Z,12.50
2018-11-04T01:55:21.815Z,9.90
2018-11-04T01:56:27.337Z,10.20
2018-11-04T01:57:32.871Z,13.30
2018-11-04T01:58:38.409Z,14.30
2018-11-04T01:59:43.936Z,11.40
2018-11-04T02:00:49.465Z,15.20
2018-11-04T02:01:55.000Z,14.30
2018-11-04T02:03:00.532Z,13.30
2018-11-04T02:04:06.067Z,12.00
2018-11-04T02:05:11.599Z,9.10
2018-11-04T02:06:17.123Z,12.60
2018-11-04T02:07:22.659Z,13.10
2018-11-04T02:08:28.187Z,13.20
2018-11-04T02:09:33.720Z,11.70
2018-11-04T02:10:39.257Z,10.90
2018-11-04T02:11:44.786Z,10.10
2018-11-04T02:12:50.318Z,12.40
2018-11-04T02:13:55.843Z,13.30
2018-11-04T02:15:01.377Z,10.40
2018-11-04T02:16:06.917Z,11.00
2018-11-04T02:17:12.446Z,16.80
2018-11-04T02:18:17.971Z,14.50
2018-11-04T02:19:23.508Z,11.60
2018-11-04T02:20:29.032Z,9.40
2018-11-04T02:21:34.570Z,13.30
2018-11-04T02:22:40.099Z,12.20
2018-11-04T02:23:45.629Z,12.50
2018-11-04T02:24:51.162Z,11.00
2018-11-04T02:25:56.701Z,12.30
2018-11-04T02:27:02.223Z,17.70
2018-11-04T02:28:07.754Z,13.50
2018-11-04T02:29:13.292Z,17.40
2018-11-04T02:30:18.821Z,13.70
2018-11-04T02:31:24.352Z,13.50
2018-11-04T02:32:29.888Z,15.00
2018-11-04T02:33:35.411Z,12.30
2018-11-04T02:34:40.947Z,14.10
2018-11-04T02:35:46.483Z,12.40
2018-11-04T02:36:52.010Z,11.70
2018-11-04T02:37:57.537Z,12.80
2018-11-04T02:39:03.070Z,11.50
2018-11-04T02:40:08.605Z,14.20
2018-11-04T02:41:14.132Z,12.10
2018-11-04T02:42:19.676Z,9.00
2018-11-04T02:43:25.199Z,12.50
2018-11-04T02:44:30.732Z,14.70
2018-11-04T02:45:36.261Z,11.60
2018-11-04T02:46:41.797Z,12.60
2018-11-04T02:47:47.326Z,13.20
2018-11-04T02:48:52.859Z,13.40
2018-11-04T02:49:58.389Z,13.10
2018-11-04T02:51:03.919Z,12.90
2018-11-04T02:52:09.453Z,12.90
2018-11-04T02:53:14.987Z,16.50
2018-11-04T02:54:20.521Z,11.80
2018-11-04T02:55:26.050Z,11.10
2018-11-04T02:56:31.577Z,11.80
2018-11-04T02:57:37.113Z,17.20
2018-11-04T02:58:42.642Z,11.30
2018-11-04T02:59:48.173Z,12.50
2018-11-04T03:00:53.706Z,12.00
2018-11-04T03:01:59.289Z,13.00
2018-11-04T03:03:04.767Z,14.20
2018-11-04T03:04:10.297Z,11.90
2018-11-04T03:05:15.832Z,11.30
2018-11-04T03:06:21.363Z,11.40
2018-11-04T03:07:26.893Z,11.70
2018-11-04T03:08:32.428Z,12.00
2018-11-04T03:09:37.958Z,9.80
2018-11-04T03:10:43.490Z,11.90
2018-11-04T03:11:49.020Z,13.90
2018-11-04T03:12:54.553Z,10.10
2018-11-04T03:14:00.083Z,10.10
2018-11-04T03:15:05.620Z,10.70
2018-11-04T03:16:11.152Z,15.00
2018-11-04T03:17:16.676Z,12.80
2018-11-04T03:18:22.209Z,9.80
2018-11-04T03:19:27.738Z,12.50
2018-11-04T03:20:33.276Z,11.10
2018-11-04T03:21:38.803Z,15.00
2018-11-04T03:22:44.339Z,17.60
2018-11-04T03:23:49.866Z,11.40
2018-11-04T03:24:55.404Z,11.30
2018-11-04T03:26:00.936Z,14.40
2018-11-04T03:27:06.462Z,10.10
2018-11-04T03:28:12.001Z,12.00
2018-11-04T03:29:17.522Z,14.30
2018-11-04T03:30:23.059Z,9.60
2018-11-04T03:31:28.594Z,11.10
2018-11-04T03:32:34.123Z,9.90
2018-11-04T03:33:39.656Z,15.10
2018-11-04T03:34:45.183Z,12.00
2018-11-04T03:35:50.713Z,11.60
2018-11-04T03:36:56.246Z,13.80
2018-11-04T03:38:01.777Z,16.60
2018-11-04T03:39:07.311Z,13.90
2018-11-04T03:40:12.841Z,12.00
2018-11-04T03:41:18.373Z,11.90
2018-11-04T03:42:23.904Z,13.80
2018-11-04T03:43:29.438Z,12.10
2018-11-04T03:44:34.972Z,14.40
2018-11-04T03:45:40.506Z,16.40
2018-11-04T03:46:46.029Z,22.00
2018-11-04T03:47:51.562Z,12.30
2018-11-04T03:48:57.094Z,15.50
2018-11-04T03:50:02.634Z,12.80
2018-11-04T03:51:08.158Z,11.00
2018-11-04T03:52:13.692Z,16.00
2018-11-04T03:53:19.225Z,12.90
2018-11-04T03:54:24.750Z,15.60
2018-11-04T03:55:30.285Z,12.30
2018-11-04T03:56:35.815Z,10.30
2018-11-04T03:57:41.353Z,11.70
2018-11-04T03:58:46.888Z,12.10
2018-11-04T03:59:52.416Z,15.00
2018-11-04T04:00:57.944Z,15.60
2018-11-04T04:02:03.480Z,15.90
2018-11-04T04:03:09.003Z,14.30
2018-11-04T04:04:14.537Z,16.60
2018-11-04T04:05:20.066Z,10.80
2018-11-04T04:06:25.599Z,15.00
2018-11-04T04:07:31.131Z,13.30
2018-11-04T04:08:36.675Z,12.70
2018-11-04T04:09:42.194Z,16.40
2018-11-04T04:10:47.733Z,13.40
2018-11-04T04:11:53.263Z,13.00
2018-11-04T04:12:58.810Z,13.30
2018-11-04T04:14:04.329Z,16.30
2018-11-04T04:15:09.862Z,12.50
2018-11-04T04:16:15.385Z,13.90
2018-11-04T04:17:20.924Z,12.20
2018-11-04T04:18:26.452Z,11.10
2018-11-04T04:19:31.982Z,14.80
2018-11-04T04:20:37.517Z,15.70
2018-11-04T04:21:43.045Z,15.50
2018-11-04T04:22:48.580Z,13.60
2018-11-04T04:23:54.115Z,19.90
2018-11-04T04:24:59.643Z,11.80
2018-11-04T04:26:05.173Z,13.10
2018-11-04T04:27:10.704Z,13.60
2018-11-04T04:28:16.244Z,13.30
2018-11-04T04:29:21.769Z,14.50
2018-11-04T04:30:27.301Z,15.20
2018-11-04T04:31:32.837Z,14.60
2018-11-04T04:32:38.369Z,21.60
2018-11-04T04:33:43.900Z,13.90
2018-11-04T04:34:49.436Z,12.30
2018-11-04T04:35:54.963Z,17.60
2018-11-04T04:37:00.497Z,17.10
2018-11-04T04:38:06.026Z,16.60
2018-11-04T04:39:11.560Z,18.40
2018-11-04T04:40:17.090Z,12.90
2018-11-04T04:41:22.622Z,15.80
2018-11-04T04:42:28.155Z,13.10
2018-11-04T04:43:33.687Z,14.70
2018-11-04T04:44:39.224Z,13.40
2018-11-04T04:45:44.751Z,17.60
2018-11-04T04:46:50.290Z,13.60
2018-11-04T04:47:55.816Z,15.70
2018-11-04T04:49:01.349Z,16.10
2018-11-04T04:50:06.880Z,12.30
2018-11-04T04:51:12.409Z,16.10
2018-11-04T04:52:17.946Z,12.90
2018-11-04T04:53:23.475Z,14.80
2018-11-04T04:54:29.012Z,16.20
2018-11-04T04:55:34.540Z,18.90
2018-11-04T04:56:40.076Z,15.90
2018-11-04T04:57:45.605Z,17.80
2018-11-04T04:58:51.140Z,18.70
2018-11-04T04:59:56.671Z,17.50
2018-11-04T05:01:02.202Z,14.90
2018-11-04T05:02:07.734Z,18.90
2018-11-04T05:03:13.267Z,16.40
2018-11-04T05:04:18.805Z,16.00
2018-11-04T05:05:24.330Z,12.60
2018-11-04T05:06:29.865Z,17.50
2018-11-04T05:07:35.397Z,15.80
2018-11-04T05:08:40.935Z,19.40
2018-11-04T05:09:46.463Z,19.40
2018-11-04T05:10:51.991Z,16.80
2018-11-04T05:11:57.527Z,15.10
2018-11-04T05:13:03.057Z,21.80
2018-11-04T05:14:08.593Z,15.80
2018-11-04T05:15:14.121Z,15.30
2018-11-04T05:16:19.657Z,18.30
2018-11-04T05:17:25.187Z,16.50
2018-11-04T05:18:30.718Z,20.70
2018-11-04T05:19:36.259Z,16.00
2018-11-04T05:20:41.789Z,17.10
2018-11-04T05:21:47.315Z,16.90
2018-11-04T05:22:52.851Z,15.80
2018-11-04T05:23:58.383Z,14.50
2018-11-04T05:25:03.921Z,14.60
2018-11-04T05:26:09.453Z,19.00
2018-11-04T05:27:14.980Z,17.20
2018-11-04T05:28:20.516Z,16.50
2018-11-04T05:29:26.052Z,21.10
2018-11-04T05:30:31.580Z,17.30
2018-11-04T05:31:37.110Z,13.10
2018-11-04T05:32:42.645Z,22.70
2018-11-04T05:33:48.176Z,19.40
2018-11-04T05:34:53.708Z,16.80
2018-11-04T05:35:59.240Z,16.80
2018-11-04T05:37:04.772Z,18.10
2018-11-04T05:38:10.312Z,23.40
2018-11-04T05:39:15.838Z,17.00
2018-11-04T05:40:21.376Z,14.30
2018-11-04T05:41:26.903Z,16.50
2018-11-04T05:42:32.435Z,17.90
2018-11-04T05:43:37.972Z,16.80
2018-11-04T05:44:43.501Z,18.80
2018-11-04T05:45:49.030Z,22.40
2018-11-04T05:46:54.564Z,16.40
2018-11-04T05:48:00.101Z,16.40
2018-11-04T05:49:05.636Z,16.10
2018-11-04T05:50:11.164Z,19.50
2018-11-04T05:51:16.698Z,21.30
2018-11-04T05:52:22.227Z,18.40
2018-11-04T05:53:27.763Z,21.30
2018-11-04T05:54:33.294Z,16.30
2018-11-04T05:55:38.828Z,15.20
2018-11-04T05:56:44.360Z,16.80
2018-11-04T05:57:49.893Z,16.60
2018-11-04T05:58:55.422Z,21.30
2018-11-04T06:00:00.958Z,19.70
2018-11-04T06:01:06.490Z,16.50
2018-11-04T06:02:12.029Z,16.60
2018-11-04T06:03:17.556Z,17.80
2018-11-04T06:04:23.090Z,13.70
2018-11-04T06:05:28.625Z,15.70
2018-11-04T06:06:34.155Z,17.10
2018-11-04T06:07:39.685Z,14.10
2018-11-04T06:08:45.224Z,18.70
2018-11-04T06:09:50.751Z,18.80
2018-11-04T06:10:56.285Z,17.50
2018-11-04T06:12:01.824Z,17.40
2018-11-04T06:13:07.356Z,19.70
2018-11-04T06:14:12.882Z,17.90
2018-11-04T06:15:18.422Z,18.20
2018-11-04T06:16:23.958Z,20.30
2018-11-04T06:17:29.487Z,17.50
2018-11-04T06:18:35.016Z,18.10
2018-11-04T06:19:40.615Z,15.50
2018-11-04T06:20:46.080Z,16.10
2018-11-04T06:21:51.612Z,17.70
2018-11-04T06:22:57.144Z,16.40
2018-11-04T06:24:02.678Z,18.80
2018-11-04T06:25:08.211Z,21.20
2018-11-04T06:26:13.741Z,16.30
2018-11-04T06:27:19.280Z,16.70
2018-11-04T06:28:24.814Z,12.40
2018-11-04T06:29:30.345Z,21.80
2018-11-04T06:30:35.874Z,16.10
2018-11-04T06:31:41.408Z,14.80
2018-11-04T06:32:46.943Z,18.10
2018-11-04T06:33:52.481Z,18.80
2018-11-04T06:34:58.007Z,13.60
2018-11-04T06:36:03.542Z,14.90
2018-11-04T06:37:09.073Z,18.70
2018-11-04T06:38:14.609Z,16.70
2018-11-04T06:39:20.135Z,17.00
2018-11-04T06:40:25.672Z,18.50
2018-11-04T06:41:31.204Z,17.50
2018-11-04T06:42:36.742Z,19.20
2018-11-04T06:43:42.272Z,18.30
2018-11-04T06:44:47.807Z,16.40
2018-11-04T06:45:53.339Z,20.90
2018-11-04T06:46:58.919Z,17.00
2018-11-04T06:48:04.410Z,18.50
2018-11-04T06:49:09.940Z,14.50
2018-11-04T06:50:15.471Z,15.60
2018-11-04T06:51:21.007Z,13.00
2018-11-04T06:52:26.540Z,16.10
2018-11-04T06:53:32.073Z,23.20
2018-11-04T06:54:37.598Z,16.70
2018-11-04T06:55:43.134Z,21.60
2018-11-04T06:56:48.670Z,19.00
2018-11-04T06:57:54.208Z,19.30
2018-11-04T06:58:59.742Z,18.50
2018-11-04T07:00:05.351Z,18.20
2018-11-04T07:01:10.800Z,15.40
2018-11-04T07:02:16.332Z,19.40
2018-11-04T07:03:21.869Z,17.20
2018-11-04T07:04:27.403Z,17.60
2018-11-04T07:05:32.933Z,15.70
2018-11-04T07:06:38.464Z,17.90
2018-11-04T07:07:43.996Z,19.10
2018-11-04T07:08:49.556Z,17.60
2018-11-04T07:09:55.063Z,17.40
2018-11-04T07:11:00.636Z,19.90
2018-11-04T07:12:06.129Z,21.60
2018-11-04T07:13:11.661Z,20.30
2018-11-04T07:14:17.195Z,19.40
2018-11-04T07:15:22.729Z,21.80
2018-11-04T07:16:28.267Z,23.40
2018-11-04T07:17:33.795Z,26.00
2018-11-04T07:18:39.343Z,14.70
2018-11-04T07:19:44.913Z,18.20
2018-11-04T07:20:50.399Z,23.40
2018-11-04T07:21:55.931Z,21.80
2018-11-04T07:23:01.468Z,20.00
2018-11-04T07:24:06.995Z,21.60
2018-11-04T07:25:12.529Z,29.60
2018-11-04T07:26:18.069Z,27.40
2018-11-04T07:27:23.594Z,19.60
2018-11-04T07:28:29.127Z,23.30
2018-11-04T07:29:34.666Z,20.50
2018-11-04T07:30:40.202Z,24.80
2018-11-04T07:31:45.734Z,25.30
2018-11-04T07:32:51.260Z,23.20
2018-11-04T07:33:56.794Z,18.20
2018-11-04T07:35:02.337Z,22.10
2018-11-04T07:36:07.860Z,22.00
2018-11-04T07:37:13.394Z,23.00
2018-11-04T07:38:18.927Z,24.70
2018-11-04T07:39:24.463Z,19.80
2018-11-04T07:40:30.005Z,21.10
2018-11-04T07:41:35.528Z,29.70
2018-11-04T07:42:41.060Z,22.40
2018-11-04T07:43:46.596Z,24.30
2018-11-04T07:44:52.131Z,23.30
2018-11-04T07:45:57.659Z,28.20
2018-11-04T07:47:03.200Z,25.00
2018-11-04T07:48:08.733Z,25.70
2018-11-04T07:49:14.261Z,26.80
2018-11-04T07:50:19.795Z,29.10
2018-11-04T07:51:25.372Z,27.00
2018-11-04T07:52:30.860Z,28.70
2018-11-04T07:53:36.393Z,23.80
2018-11-04T07:54:41.937Z,26.80
2018-11-04T07:55:47.458Z,26.40
2018-11-04T07:56:53.035Z,25.80
2018-11-04T07:57:58.529Z,30.20
2018-11-04T07:59:04.068Z,30.00
2018-11-04T08:00:09.596Z,26.30
2018-11-04T08:01:15.134Z,28.60
2018-11-04T08:02:20.662Z,30.20
2018-11-04T08:03:26.220Z,31.00
2018-11-04T08:04:31.730Z,28.10
2018-11-04T08:05:37.269Z,28.90
2018-11-04T08:06:42.799Z,32.20
2018-11-04T08:07:48.331Z,29.90
2018-11-04T08:08:53.866Z,32.00
2018-11-04T08:09:59.407Z,29.00
2018-11-04T08:11:04.930Z,33.50
2018-11-04T08:12:10.479Z,37.10
2018-11-04T08:13:15.999Z,32.00
2018-11-04T08:14:21.536Z,36.80
2018-11-04T08:15:27.066Z,32.70
2018-11-04T08:16:32.598Z,32.90
2018-11-04T08:17:38.134Z,30.00
2018-11-04T08:18:43.671Z,35.30
2018-11-04T08:19:49.201Z,32.00
2018-11-04T08:20:54.740Z,41.20
2018-11-04T08:22:00.268Z,30.10
2018-11-04T08:23:05.800Z,35.10
2018-11-04T08:24:11.350Z,44.70
2018-11-04T08:25:16.872Z,35.70
2018-11-04T08:26:22.404Z,38.50
2018-11-04T08:27:27.935Z,40.40
2018-11-04T08:28:33.478Z,38.90
2018-11-04T08:29:39.011Z,39.80
2018-11-04T08:30:44.545Z,39.60
2018-11-04T08:31:50.071Z,40.90
2018-11-04T08:32:55.614Z,41.80
2018-11-04T08:34:01.139Z,43.30
2018-11-04T08:35:06.671Z,44.90
2018-11-04T08:36:12.207Z,43.10
2018-11-04T08:37:17.741Z,50.40
2018-11-04T08:38:23.273Z,40.60
2018-11-04T08:39:28.810Z,41.40
2018-11-04T08:40:34.350Z,46.50
2018-11-04T08:41:39.883Z,49.90
2018-11-04T08:42:45.412Z,49.00
2018-11-04T08:43:50.949Z,39.40
2018-11-04T08:44:56.485Z,42.70
2018-11-04T08:46:02.018Z,48.90
2018-11-04T08:47:07.545Z,43.40
2018-11-04T08:48:13.080Z,50.20
2018-11-04T08:49:18.617Z,45.30
2018-11-04T08:50:24.151Z,41.30
2018-11-04T08:51:29.683Z,45.80
2018-11-04T08:52:35.411Z,46.00
2018-11-04T08:53:40.751Z,87.50
2018-11-04T08:54:46.291Z,49.70
2018-11-04T08:55:51.827Z,43.10
2018-11-04T08:56:57.353Z,50.70
2018-11-04T08:58:02.887Z,49.90
2018-11-04T08:59:08.422Z,42.10
2018-11-04T09:00:13.983Z,46.10
2018-11-04T09:01:19.558Z,63.00
2018-11-04T09:02:25.025Z,49.40
2018-11-04T09:03:30.554Z,46.30
2018-11-04T09:04:36.131Z,47.60
2018-11-04T09:05:41.643Z,39.50
2018-11-04T09:06:50.172Z,46.80
2018-11-04T09:07:52.693Z,45.00
2018-11-04T09:08:58.231Z,50.90
2018-11-04T09:10:03.773Z,52.60
2018-11-04T09:11:09.304Z,44.30
2018-11-04T09:12:14.832Z,40.70
2018-11-04T09:13:20.369Z,40.10
2018-11-04T09:14:25.958Z,48.10
2018-11-04T09:15:31.436Z,45.90
2018-11-04T09:16:36.978Z,38.60
2018-11-04T09:17:42.505Z,43.30
2018-11-04T09:18:48.042Z,43.80
2018-11-04T09:19:53.573Z,50.10
2018-11-04T09:20:59.106Z,51.50
2018-11-04T09:22:04.803Z,48.60
2018-11-04T09:23:10.182Z,50.00
2018-11-04T09:24:15.716Z,44.10
2018-11-04T09:25:21.246Z,47.80
2018-11-04T09:26:26.778Z,55.60
2018-11-04T09:27:32.312Z,44.10
2018-11-04T09:28:37.852Z,46.10
2018-11-04T09:29:43.384Z,45.70
2018-11-04T09:30:48.925Z,44.30
2018-11-04T09:31:54.450Z,48.40
2018-11-04T09:32:59.988Z,45.70
2018-11-04T09:34:05.520Z,56.50
2018-11-04T09:35:11.261Z,48.20
2018-11-04T09:36:16.607Z,50.00
2018-11-04T09:37:22.121Z,53.20
2018-11-04T09:38:27.660Z,43.70
2018-11-04T09:39:33.195Z,47.20
2018-11-04T09:40:38.728Z,57.00
2018-11-04T09:41:44.260Z,45.90
2018-11-04T09:42:49.799Z,47.20
2018-11-04T09:43:55.328Z,48.70
2018-11-04T09:45:00.868Z,44.00
2018-11-04T09:46:06.400Z,46.60
2018-11-04T09:47:11.937Z,48.80
2018-11-04T09:48:17.473Z,46.20
2018-11-04T09:49:23.003Z,44.30
2018-11-04T09:50:28.540Z,50.70
2018-11-04T09:51:34.086Z,45.50
2018-11-04T09:52:39.608Z,44.20
2018-11-04T09:53:45.147Z,49.40
2018-11-04T09:54:50.676Z,47.80
2018-11-04T09:55:56.212Z,44.00
2018-11-04T09:57:01.750Z,49.40
2018-11-04T09:58:07.287Z,41.30
2018-11-04T09:59:12.813Z,43.70
2018-11-04T10:00:18.355Z,41.60
2018-11-04T10:01:23.886Z,43.90
2018-11-04T10:02:29.428Z,43.70
2018-11-04T10:03:35.004Z,43.50
2018-11-04T10:04:40.493Z,40.70
2018-11-04T10:05:46.029Z,41.80
2018-11-04T10:06:51.600Z,44.40
2018-11-04T10:07:57.096Z,47.70
2018-11-04T10:09:02.630Z,51.00
2018-11-04T10:10:08.164Z,50.20
2018-11-04T10:11:13.704Z,42.90
2018-11-04T10:12:19.236Z,45.00
2018-11-04T10:13:24.883Z,47.00
2018-11-04T10:14:30.305Z,43.40
2018-11-04T10:15:35.847Z,49.30
2018-11-04T10:16:41.383Z,43.70
2018-11-04T10:17:46.909Z,45.00
2018-11-04T10:18:52.546Z,43.40
2018-11-04T10:19:58.217Z,45.60
2018-11-04T10:21:03.909Z,44.90
2018-11-04T10:22:09.050Z,48.10
2018-11-04T10:23:14.587Z,43.90
2018-11-04T10:24:20.121Z,46.20
2018-11-04T10:25:25.661Z,48.60
2018-11-04T10:26:31.189Z,49.30
2018-11-04T10:27:36.727Z,44.00
2018-11-04T10:28:42.265Z,43.90
2018-11-04T10:29:47.795Z,41.00
2018-11-04T10:30:53.332Z,41.20
2018-11-04T10:31:58.867Z,52.70
2018-11-04T10:33:04.404Z,45.00
2018-11-04T10:34:09.943Z,43.80
2018-11-04T10:35:15.471Z,44.70
2018-11-04T10:36:21.055Z,45.80
2018-11-04T10:37:26.627Z,43.40
2018-11-04T10:38:32.083Z,43.30
2018-11-04T10:39:37.618Z,41.30
2018-11-04T10:40:43.147Z,45.40
2018-11-04T10:41:48.685Z,46.60
2018-11-04T10:42:54.226Z,41.80
2018-11-04T10:43:59.781Z,47.30
2018-11-04T10:45:05.291Z,43.20
2018-11-04T10:46:10.827Z,44.20
2018-11-04T10:47:16.367Z,40.20
2018-11-04T10:48:21.899Z,42.80
2018-11-04T10:49:27.486Z,39.20
2018-11-04T10:50:32.969Z,45.80
2018-11-04T10:51:38.503Z,45.60
2018-11-04T10:52:44.042Z,42.10
2018-11-04T10:53:49.574Z,41.80
2018-11-04T10:54:55.541Z,46.80
2018-11-04T10:56:00.655Z,46.80
2018-11-04T10:57:06.185Z,41.90
2018-11-04T10:58:11.718Z,37.00
2018-11-04T10:59:17.292Z,48.10
2018-11-04T11:00:22.792Z,46.60
2018-11-04T11:01:28.326Z,45.50
2018-11-04T11:02:33.860Z,44.00
2018-11-04T11:03:39.399Z,40.00
2018-11-04T11:04:45.027Z,41.90
2018-11-04T11:05:50.468Z,45.60
2018-11-04T11:06:56.005Z,39.70
2018-11-04T11:08:01.549Z,44.60
2018-11-04T11:09:07.089Z,45.40
2018-11-04T11:10:12.611Z,37.90
2018-11-04T11:11:18.148Z,48.20
2018-11-04T11:12:23.683Z,40.40
2018-11-04T11:13:29.223Z,40.20
2018-11-04T11:14:34.760Z,41.20
2018-11-04T11:15:40.290Z,44.70
2018-11-04T11:16:45.828Z,37.30
2018-11-04T11:17:51.360Z,42.70
2018-11-04T11:18:56.899Z,39.10
2018-11-04T11:20:02.436Z,37.60
2018-11-04T11:21:07.973Z,39.90
2018-11-04T11:22:13.544Z,44.40
2018-11-04T11:23:19.186Z,33.40
2018-11-04T11:24:24.585Z,41.70
2018-11-04T11:25:30.117Z,37.40
2018-11-04T11:26:35.657Z,36.90
2018-11-04T11:27:41.186Z,39.70
2018-11-04T11:28:46.724Z,36.20
2018-11-04T11:29:52.316Z,42.70
2018-11-04T11:30:57.810Z,40.60
2018-11-04T11:32:03.334Z,37.10
2018-11-04T11:33:08.867Z,38.20
2018-11-04T11:34:14.407Z,41.80
2018-11-04T11:35:19.944Z,37.80
2018-11-04T11:36:25.476Z,38.70
2018-11-04T11:37:31.069Z,41.30
2018-11-04T11:38:36.554Z,33.60
2018-11-04T11:39:42.084Z,42.90
2018-11-04T11:40:47.631Z,39.30
2018-11-04T11:41:53.176Z,36.00
2018-11-04T11:42:58.692Z,39.70
2018-11-04T11:44:04.237Z,41.30
2018-11-04T11:45:09.774Z,36.00
2018-11-04T11:46:15.302Z,38.10
2018-11-04T11:47:20.845Z,38.10
2018-11-04T11:48:26.379Z,45.50
2018-11-04T11:49:31.912Z,38.10
2018-11-04T11:50:37.454Z,36.70
2018-11-04T11:51:42.994Z,38.60
2018-11-04T11:52:48.524Z,37.60
2018-11-04T11:53:54.062Z,33.00
2018-11-04T11:54:59.596Z,36.40
2018-11-04T11:56:05.129Z,39.40
2018-11-04T11:57:10.665Z,40.10
2018-11-04T11:58:16.209Z,35.80
2018-11-04T11:59:21.750Z,42.20
2018-11-04T12:00:27.282Z,32.10
2018-11-04T12:01:32.811Z,37.90
2018-11-04T12:02:38.348Z,40.50
2018-11-04T12:03:43.892Z,39.50
2018-11-04T12:04:49.423Z,33.70
2018-11-04T12:05:54.962Z,41.60
2018-11-04T12:07:00.493Z,44.10
2018-11-04T12:08:06.033Z,37.40
2018-11-04T12:09:11.567Z,38.10
2018-11-04T12:10:17.104Z,35.50
2018-11-04T12:11:22.643Z,39.00
2018-11-04T12:12:28.182Z,35.10
2018-11-04T12:13:33.712Z,42.90
2018-11-04T12:14:39.251Z,37.70
2018-11-04T12:15:44.793Z,41.30
2018-11-04T12:16:50.324Z,40.00
2018-11-04T12:17:55.964Z,39.70
2018-11-04T12:19:01.395Z,42.00
2018-11-04T12:20:06.938Z,39.70
2018-11-04T12:21:12.474Z,40.10
2018-11-04T12:22:18.011Z,48.30
2018-11-04T12:23:23.543Z,40.60
2018-11-04T12:24:29.082Z,35.30
2018-11-04T12:25:34.612Z,39.70
2018-11-04T12:26:40.150Z,40.00
2018-11-04T12:27:45.696Z,42.40
2018-11-04T12:28:51.303Z,36.20
2018-11-04T12:29:56.760Z,37.40
2018-11-04T12:31:02.305Z,39.80
2018-11-04T12:32:07.832Z,38.00
2018-11-04T12:33:13.374Z,36.00
2018-11-04T12:34:18.914Z,41.00
2018-11-04T12:35:24.619Z,35.90
2018-11-04T12:36:29.987Z,36.80
2018-11-04T12:37:35.523Z,34.50
2018-11-04T12:38:41.107Z,34.30
2018-11-04T12:39:46.595Z,36.90
2018-11-04T12:40:52.126Z,38.40
2018-11-04T12:41:57.666Z,37.40
2018-11-04T12:43:03.204Z,35.30
2018-11-04T12:44:08.739Z,33.70
2018-11-04T12:45:14.275Z,34.50
2018-11-04T12:46:19.808Z,35.60
2018-11-04T12:47:25.351Z,40.40
2018-11-04T12:48:30.881Z,32.70
2018-11-04T12:49:36.418Z,35.00
2018-11-04T12:50:41.959Z,36.50
2018-11-04T12:51:47.494Z,35.10
2018-11-04T12:52:53.030Z,31.10
2018-11-04T12:53:58.571Z,36.60
2018-11-04T12:55:04.103Z,33.60
2018-11-04T12:56:09.641Z,38.10
2018-11-04T12:57:15.175Z,33.20
2018-11-04T12:58:20.709Z,33.60
2018-11-04T12:59:26.252Z,28.80
2018-11-04T13:00:31.787Z,33.50
2018-11-04T13:01:37.319Z,32.50
2018-11-04T13:02:42.856Z,36.00
2018-11-04T13:03:48.395Z,35.30
2018-11-04T13:04:53.935Z,34.70
2018-11-04T13:05:59.465Z,33.80
2018-11-04T13:07:05.006Z,29.20
2018-11-04T13:08:10.541Z,32.50
2018-11-04T13:09:16.076Z,31.00
2018-11-04T13:10:21.613Z,36.60
2018-11-04T13:11:27.166Z,37.00
2018-11-04T13:12:32.691Z,29.30
2018-11-04T13:13:38.226Z,30.40
2018-11-04T13:14:43.773Z,28.60
2018-11-04T13:15:49.298Z,30.70
2018-11-04T13:16:54.833Z,32.20
2018-11-04T13:18:00.377Z,31.60
2018-11-04T13:19:05.907Z,31.20
2018-11-04T13:20:11.450Z,29.10
2018-11-04T13:21:17.059Z,29.20
2018-11-04T13:22:22.525Z,34.00
2018-11-04T13:23:28.055Z,35.80
2018-11-04T13:24:33.590Z,32.10
2018-11-04T13:25:39.136Z,32.90
2018-11-04T13:26:44.669Z,34.80
2018-11-04T13:27:50.201Z,31.50
2018-11-04T13:28:55.737Z,31.60
2018-11-04T13:30:01.286Z,30.80
2018-11-04T13:31:06.810Z,33.40
2018-11-04T13:32:12.353Z,30.50
2018-11-04T13:33:17.892Z,33.20
2018-11-04T13:34:23.426Z,35.00
2018-11-04T13:35:28.966Z,34.90
2018-11-04T13:36:34.495Z,31.90
2018-11-04T13:37:40.033Z,33.10
2018-11-04T13:38:45.576Z,31.40
2018-11-04T13:39:51.113Z,36.30
2018-11-04T13:40:56.651Z,28.20
2018-11-04T13:42:02.193Z,33.40
2018-11-04T13:43:07.730Z,30.10
2018-11-04T13:44:13.254Z,33.00
2018-11-04T13:45:18.789Z,31.90
2018-11-04T13:46:24.324Z,31.60
2018-11-04T13:47:29.864Z,33.10
2018-11-04T13:48:35.405Z,28.60
2018-11-04T13:49:40.939Z,30.90
2018-11-04T13:50:46.477Z,29.70
2018-11-04T13:51:52.017Z,30.20
2018-11-04T13:52:57.549Z,31.40
2018-11-04T13:54:03.092Z,32.80
2018-11-04T13:55:08.621Z,36.50
2018-11-04T13:56:14.162Z,30.60
2018-11-04T13:57:19.696Z,33.40
2018-11-04T13:58:25.231Z,32.40
2018-11-04T13:59:30.778Z,30.40
2018-11-04T14:00:36.315Z,29.50
2018-11-04T14:01:41.846Z,31.00
2018-11-04T14:02:47.423Z,35.50
2018-11-04T14:03:52.918Z,34.40
2018-11-04T14:04:58.452Z,27.40